Terminal Aerodrome Forecast
Issued by NWS Grand Forks, ND

Home | Current Version | Previous Version | Graphics & Text | Print | Product List | Glossary On
Versions: 1 2 3 4 5 6 7 8 9 10 11 12 13 14 15 16
802
FTUS43 KFGF 162320
TAFFAR
TAF
KFAR 162320Z 1700/1724 15022G32KT P6SM BKN150
     FM170600 15017KT P6SM OVC110
     FM170900 16009KT P6SM BKN120
     FM171100 19009KT P6SM BKN110
     FM171300 22008KT P6SM BKN100
     FM171400 27007KT P6SM BKN100
     FM171800 33009KT P6SM BKN090=

USA.gov is the U.S. government's official web portal to all federal, state and local government web resources and services.